Terminal Aerodrome Forecast
Issued by NWS

Home | Current Version | Previous Version | Text Only | Print | Product List | Glossary Off
Versions: 1 2 3 4 5 6 7 8 9 10 11 12 13 14 15 16

000
FTUS43 KGRB 132323
TAFCWA
TAF
KCWA 132323Z 1400/1424 VRB03KT P6SM SCT045 OVC120
      TEMPO 1402/1406 BKN045
     FM141500 27007KT P6SM FEW200=

USA.gov is the U.S. government's official web portal to all federal, state and local government web resources and services.